createdAt,value
2018-11-10T00:01:52.417Z,67.00
2018-11-10T00:04:19.494Z,71.27
2018-11-10T00:06:46.335Z,72.50
2018-11-10T00:09:13.297Z,65.97
2018-11-10T00:11:40.533Z,70.50
2018-11-10T00:14:07.779Z,61.77
2018-11-10T00:16:35.016Z,67.47
2018-11-10T00:19:01.924Z,69.93
2018-11-10T00:21:29.041Z,60.77
2018-11-10T00:23:55.977Z,72.63
2018-11-10T00:26:22.927Z,66.70
2018-11-10T00:28:49.907Z,63.13
2018-11-10T00:31:16.909Z,62.40
2018-11-10T00:33:44.038Z,68.40
2018-11-10T00:36:11.009Z,66.47
2018-11-10T00:38:37.972Z,68.47
2018-11-10T00:41:05.010Z,70.70
2018-11-10T00:43:32.003Z,65.17
2018-11-10T00:45:58.980Z,73.77
2018-11-10T00:48:25.949Z,68.87
2018-11-10T00:50:52.990Z,68.60
2018-11-10T00:53:19.958Z,70.23
2018-11-10T00:55:46.978Z,64.20
2018-11-10T00:58:14.270Z,68.67
2018-11-10T01:00:41.207Z,71.73
2018-11-10T01:03:08.137Z,60.77
2018-11-10T01:05:35.110Z,68.13
2018-11-10T01:08:02.027Z,62.60
2018-11-10T01:10:29.093Z,67.23
2018-11-10T01:12:56.119Z,65.17
2018-11-10T01:15:23.068Z,60.60
2018-11-10T01:17:50.045Z,63.73
2018-11-10T01:20:17.015Z,70.27
2018-11-10T01:22:44.042Z,72.20
2018-11-10T01:25:11.330Z,67.20
2018-11-10T01:27:38.326Z,69.77
2018-11-10T01:30:08.599Z,59.40
2018-11-10T01:32:35.555Z,68.80
2018-11-10T01:35:02.612Z,63.67
2018-11-10T01:37:29.823Z,66.57
2018-11-10T01:39:56.808Z,61.13
2018-11-10T01:42:23.754Z,68.43
2018-11-10T01:44:50.698Z,68.47
2018-11-10T01:47:17.674Z,70.87
2018-11-10T01:49:44.658Z,62.93
2018-11-10T01:52:11.603Z,65.37
2018-11-10T01:54:38.610Z,63.20
2018-11-10T01:57:05.634Z,69.87
2018-11-10T01:59:32.612Z,61.33
2018-11-10T02:01:59.571Z,63.57
2018-11-10T02:04:26.587Z,66.13
2018-11-10T02:06:53.565Z,66.70
2018-11-10T02:09:20.477Z,62.97
2018-11-10T02:11:47.443Z,62.03
2018-11-10T02:14:14.411Z,63.43
2018-11-10T02:16:41.419Z,60.53
2018-11-10T02:19:08.388Z,60.10
2018-11-10T02:21:35.360Z,65.17
2018-11-10T02:24:02.351Z,65.50
2018-11-10T02:26:29.454Z,61.23
2018-11-10T02:28:56.401Z,60.23
2018-11-10T02:31:23.491Z,65.10
2018-11-10T02:33:50.444Z,62.50
2018-11-10T02:36:17.423Z,62.07
2018-11-10T02:38:44.515Z,55.43
2018-11-10T02:41:11.358Z,64.70
2018-11-10T02:43:38.379Z,62.70
2018-11-10T02:46:05.401Z,59.63
2018-11-10T02:48:32.344Z,56.27
2018-11-10T02:50:59.322Z,65.23
2018-11-10T02:53:26.273Z,66.33
2018-11-10T02:55:53.244Z,57.90
2018-11-10T02:58:20.282Z,56.60
2018-11-10T03:00:47.276Z,61.33
2018-11-10T03:03:14.185Z,63.13
2018-11-10T03:05:41.165Z,60.50
2018-11-10T03:08:08.106Z,67.30
2018-11-10T03:10:35.068Z,66.57
2018-11-10T03:13:02.040Z,63.20
2018-11-10T03:15:29.130Z,70.03
2018-11-10T03:17:56.044Z,71.93
2018-11-10T03:20:23.034Z,64.37
2018-11-10T03:22:49.968Z,57.53
2018-11-10T03:25:16.922Z,62.43
2018-11-10T03:27:43.863Z,63.00
2018-11-10T03:30:10.835Z,59.47
2018-11-10T03:32:37.878Z,54.90
2018-11-10T03:35:05.567Z,54.40
2018-11-10T03:37:33.263Z,59.53
2018-11-10T03:40:00.213Z,60.73
2018-11-10T03:42:27.128Z,63.20
2018-11-10T03:44:54.108Z,54.60
2018-11-10T03:47:21.084Z,58.03
2018-11-10T03:49:48.045Z,50.60
2018-11-10T03:52:14.951Z,66.83
2018-11-10T03:54:41.877Z,59.03
2018-11-10T03:57:08.864Z,62.63
2018-11-10T03:59:35.835Z,57.93
2018-11-10T04:02:02.813Z,63.87
2018-11-10T04:04:29.831Z,58.83
2018-11-10T04:06:56.824Z,60.57
2018-11-10T04:09:23.752Z,58.13
2018-11-10T04:11:50.697Z,60.07
2018-11-10T04:14:17.652Z,58.70
2018-11-10T04:16:44.633Z,59.70
2018-11-10T04:19:11.592Z,57.03
2018-11-10T04:21:38.529Z,55.17
2018-11-10T04:24:05.507Z,56.30
2018-11-10T04:26:32.488Z,60.47
2018-11-10T04:28:59.422Z,57.73
2018-11-10T04:31:26.367Z,56.20
2018-11-10T04:33:53.321Z,56.73
2018-11-10T04:36:20.353Z,53.30
2018-11-10T04:38:47.273Z,54.90
2018-11-10T04:41:14.255Z,59.30
2018-11-10T04:43:41.431Z,54.37
2018-11-10T04:46:08.387Z,49.90
2018-11-10T04:48:35.321Z,50.73
2018-11-10T04:51:02.297Z,55.23
2018-11-10T04:53:29.273Z,54.73
2018-11-10T04:55:56.233Z,51.33
2018-11-10T04:58:23.177Z,51.80
2018-11-10T05:00:50.195Z,51.50
2018-11-10T05:03:17.128Z,51.50
2018-11-10T05:05:44.096Z,50.93
2018-11-10T05:13:04.360Z,47.17
2018-11-10T05:15:31.275Z,66.53
2018-11-10T05:17:58.191Z,54.87
2018-11-10T05:20:25.139Z,53.90
2018-11-10T05:22:52.095Z,57.53
2018-11-10T05:25:19.088Z,57.67
2018-11-10T05:27:46.053Z,56.80
2018-11-10T05:30:13.303Z,65.00
2018-11-10T05:32:40.249Z,56.13
2018-11-10T05:35:07.728Z,67.77
2018-11-10T05:37:38.555Z,77.70
2018-11-10T05:40:06.891Z,53.73
2018-11-10T05:42:34.540Z,68.73
2018-11-10T05:45:01.857Z,64.70
2018-11-10T05:47:28.879Z,72.90
2018-11-10T05:49:55.806Z,66.23
2018-11-10T05:52:22.844Z,61.30
2018-11-10T05:54:49.774Z,59.33
2018-11-10T05:57:16.811Z,50.33
2018-11-10T05:59:43.674Z,60.07
2018-11-10T06:02:10.605Z,54.93
2018-11-10T06:04:37.567Z,57.97
2018-11-10T06:07:04.564Z,57.23
2018-11-10T06:09:31.498Z,58.67
2018-11-10T06:11:58.414Z,63.70
2018-11-10T06:14:25.354Z,69.83
2018-11-10T06:16:52.312Z,59.90
2018-11-10T06:19:19.305Z,56.07
2018-11-10T06:21:46.283Z,53.43
2018-11-10T06:24:13.244Z,49.07
2018-11-10T06:26:40.245Z,57.60
2018-11-10T06:29:07.230Z,47.97
2018-11-10T06:31:34.216Z,54.87
2018-11-10T06:34:01.172Z,48.83
2018-11-10T06:36:28.182Z,48.17
2018-11-10T06:38:55.212Z,47.67
2018-11-10T06:41:22.284Z,51.43
2018-11-10T06:43:49.222Z,53.57
2018-11-10T06:46:16.214Z,49.63
2018-11-10T06:48:43.184Z,53.03
2018-11-10T06:51:10.157Z,50.80
2018-11-10T06:53:37.666Z,47.27
2018-11-10T06:56:04.741Z,53.23
2018-11-10T06:58:31.759Z,59.67
2018-11-10T07:00:58.813Z,56.77
2018-11-10T07:03:25.856Z,47.77
2018-11-10T07:05:52.843Z,44.97
2018-11-10T07:08:19.831Z,49.87
2018-11-10T07:10:46.751Z,50.40
2018-11-10T07:13:13.717Z,50.87
2018-11-10T07:15:41.583Z,49.13
2018-11-10T07:18:08.602Z,55.33
2018-11-10T07:20:35.557Z,50.30
2018-11-10T07:23:02.536Z,61.03
2018-11-10T07:25:30.242Z,50.47
2018-11-10T07:27:57.204Z,52.20
2018-11-10T07:30:24.133Z,54.60
2018-11-10T07:32:51.182Z,50.93
2018-11-10T07:35:18.129Z,55.33
2018-11-10T07:37:45.241Z,52.97
2018-11-10T07:40:12.684Z,55.47
2018-11-10T07:42:39.728Z,50.47
2018-11-10T07:45:08.231Z,52.97
2018-11-10T07:47:35.197Z,48.03
2018-11-10T07:50:02.163Z,52.37
2018-11-10T07:52:29.228Z,55.03
2018-11-10T07:54:56.188Z,52.37
2018-11-10T07:57:23.125Z,53.63
2018-11-10T07:59:50.053Z,54.87
2018-11-10T08:02:17.012Z,55.33
2018-11-10T08:04:44.018Z,63.43
2018-11-10T08:07:10.964Z,51.30
2018-11-10T08:09:37.902Z,57.23
2018-11-10T08:12:04.863Z,50.87
2018-11-10T08:14:31.808Z,54.20
2018-11-10T08:16:58.798Z,52.20
2018-11-10T08:19:25.782Z,54.03
2018-11-10T08:21:52.868Z,51.97
2018-11-10T08:24:19.855Z,68.00
2018-11-10T08:26:46.802Z,56.23
2018-11-10T08:29:13.772Z,57.60
2018-11-10T08:31:40.849Z,54.90
2018-11-10T08:34:09.497Z,53.07
2018-11-10T08:36:36.522Z,55.27
2018-11-10T08:39:05.492Z,54.70
2018-11-10T08:41:33.013Z,52.37
2018-11-10T08:43:59.955Z,63.30
2018-11-10T08:46:26.881Z,55.63
2018-11-10T08:48:53.839Z,55.20
2018-11-10T08:51:20.739Z,53.10
2018-11-10T08:53:47.683Z,58.37
2018-11-10T08:56:15.036Z,61.73
2018-11-10T08:58:42.080Z,59.27
2018-11-10T09:01:09.090Z,60.23
2018-11-10T09:03:36.292Z,59.80
2018-11-10T09:06:03.276Z,57.63
2018-11-10T09:08:30.314Z,59.87
2018-11-10T09:10:57.234Z,54.23
2018-11-10T09:13:26.228Z,52.47
2018-11-10T09:16:01.074Z,50.47
2018-11-10T09:18:28.524Z,59.13
2018-11-10T09:20:55.494Z,58.57
2018-11-10T09:23:22.411Z,56.07
2018-11-10T09:25:49.391Z,59.67
2018-11-10T09:28:16.378Z,63.37
2018-11-10T09:30:43.443Z,62.27
2018-11-10T09:33:10.320Z,52.50
2018-11-10T09:35:37.311Z,54.23
2018-11-10T09:38:05.025Z,50.93
2018-11-10T09:40:31.979Z,58.70
2018-11-10T09:42:58.919Z,59.47
2018-11-10T09:45:25.952Z,65.37
2018-11-10T09:47:52.903Z,58.00
2018-11-10T09:50:21.023Z,54.17
2018-11-10T09:52:48.054Z,65.00
2018-11-10T09:55:15.543Z,52.10
2018-11-10T09:57:42.497Z,51.10
2018-11-10T10:00:13.219Z,53.17
2018-11-10T10:02:40.793Z,60.07
2018-11-10T10:05:08.035Z,50.57
2018-11-10T10:07:35.193Z,51.10
2018-11-10T10:10:02.159Z,54.60
2018-11-10T10:12:29.447Z,50.80
2018-11-10T10:14:57.124Z,50.83
2018-11-10T10:17:24.678Z,49.67
2018-11-10T10:19:51.623Z,51.37
2018-11-10T10:22:18.568Z,54.40
2018-11-10T10:24:45.507Z,55.93
2018-11-10T10:27:12.489Z,47.57
2018-11-10T10:29:39.552Z,55.50
2018-11-10T10:32:06.484Z,50.00
2018-11-10T10:34:33.509Z,48.47
2018-11-10T10:37:00.392Z,49.77
2018-11-10T10:39:27.343Z,64.57
2018-11-10T10:41:55.026Z,59.97
2018-11-10T10:44:22.751Z,48.87
2018-11-10T10:46:49.716Z,47.20
2018-11-10T10:49:16.744Z,50.40
2018-11-10T10:51:43.644Z,50.83
2018-11-10T10:54:10.658Z,47.47
2018-11-10T10:56:37.755Z,54.33
2018-11-10T10:59:04.818Z,44.47
2018-11-10T11:01:37.586Z,43.60
2018-11-10T11:04:11.266Z,49.83
2018-11-10T11:06:38.236Z,49.27
2018-11-10T11:09:05.936Z,48.50
2018-11-10T11:11:32.957Z,45.77
2018-11-10T11:13:59.963Z,48.53
2018-11-10T11:16:27.856Z,52.80
2018-11-10T11:18:54.836Z,50.50
2018-11-10T11:21:21.823Z,53.30
2018-11-10T11:23:48.776Z,48.17
2018-11-10T11:26:15.735Z,44.43
2018-11-10T11:28:42.669Z,45.10
2018-11-10T11:31:09.692Z,44.40
2018-11-10T11:33:36.636Z,48.43
2018-11-10T11:36:03.605Z,47.40
2018-11-10T11:38:30.679Z,44.40
2018-11-10T11:40:57.966Z,46.20
2018-11-10T11:43:24.932Z,45.37
2018-11-10T11:45:51.872Z,42.67
2018-11-10T11:48:18.878Z,43.47
2018-11-10T11:50:46.702Z,47.00
2018-11-10T11:53:13.641Z,42.40
2018-11-10T11:55:40.602Z,42.27
2018-11-10T11:58:07.707Z,46.57
2018-11-10T12:00:34.533Z,42.20
2018-11-10T12:03:01.543Z,41.77
2018-11-10T12:05:28.481Z,38.73
2018-11-10T12:07:55.436Z,44.67
2018-11-10T12:10:22.481Z,45.37
2018-11-10T12:12:49.568Z,56.30
2018-11-10T12:15:16.893Z,41.40
2018-11-10T12:17:43.864Z,45.33
2018-11-10T12:20:12.648Z,41.57
2018-11-10T12:22:39.781Z,36.33
2018-11-10T12:25:07.343Z,35.90
2018-11-10T12:27:34.325Z,39.60
2018-11-10T12:30:01.321Z,41.10
2018-11-10T12:32:28.278Z,44.07
2018-11-10T12:34:55.232Z,39.87
2018-11-10T12:37:22.187Z,38.53
2018-11-10T12:39:49.167Z,41.63
2018-11-10T12:42:16.158Z,38.40
2018-11-10T12:44:43.089Z,37.30
2018-11-10T12:47:10.045Z,37.07
2018-11-10T12:54:32.260Z,37.20
2018-11-10T12:56:59.253Z,34.97
2018-11-10T12:59:26.236Z,39.90
2018-11-10T13:01:53.187Z,40.53
2018-11-10T13:04:20.155Z,37.00
2018-11-10T13:06:47.376Z,46.20
2018-11-10T13:09:14.332Z,36.77
2018-11-10T13:11:41.442Z,38.50
2018-11-10T13:14:09.703Z,40.20
2018-11-10T13:16:36.730Z,44.73
2018-11-10T13:19:04.083Z,40.33
2018-11-10T13:21:31.095Z,41.47
2018-11-10T13:23:58.111Z,37.97
2018-11-10T13:26:25.104Z,38.33
2018-11-10T13:28:52.082Z,34.13
2018-11-10T13:31:19.326Z,39.63
2018-11-10T13:33:46.200Z,40.73
2018-11-10T13:36:13.234Z,43.10
2018-11-10T13:38:40.423Z,37.53
2018-11-10T13:41:07.404Z,46.47
2018-11-10T13:43:34.480Z,44.23
2018-11-10T13:46:01.701Z,35.67
2018-11-10T13:48:28.624Z,37.40
2018-11-10T13:50:55.725Z,33.73
2018-11-10T13:53:22.433Z,36.60
2018-11-10T13:55:49.493Z,34.87
2018-11-10T13:58:17.512Z,39.03
2018-11-10T14:00:44.422Z,42.27
2018-11-10T14:03:11.336Z,39.43
2018-11-10T14:05:38.307Z,37.50
2018-11-10T14:08:05.491Z,39.57
2018-11-10T14:10:32.388Z,34.97
2018-11-10T14:12:59.279Z,37.63
2018-11-10T14:15:26.208Z,32.80
2018-11-10T14:17:53.187Z,35.70
2018-11-10T14:20:20.163Z,37.53
2018-11-10T14:22:47.109Z,36.60
2018-11-10T14:25:15.148Z,42.27
2018-11-10T14:27:42.783Z,38.43
2018-11-10T14:30:11.793Z,40.23
2018-11-10T14:32:39.048Z,39.43
2018-11-10T14:35:06.718Z,36.73
2018-11-10T14:37:33.596Z,37.13
2018-11-10T14:40:00.649Z,40.97
2018-11-10T14:42:27.539Z,35.70
2018-11-10T14:44:54.699Z,34.23
2018-11-10T14:47:21.642Z,35.37
2018-11-10T14:49:48.615Z,33.80
2018-11-10T14:52:15.616Z,42.47
2018-11-10T14:54:42.580Z,38.63
2018-11-10T14:57:09.472Z,37.40
2018-11-10T14:59:36.925Z,39.07
2018-11-10T15:02:04.180Z,37.13
2018-11-10T15:04:31.185Z,43.40
2018-11-10T15:06:58.086Z,44.53
2018-11-10T15:09:25.078Z,39.90
2018-11-10T15:11:52.144Z,40.13
2018-11-10T15:14:19.024Z,35.00
2018-11-10T15:16:45.912Z,38.75
2018-11-10T15:19:12.827Z,40.63
2018-11-10T15:21:39.801Z,41.13
2018-11-10T15:24:06.803Z,32.07
2018-11-10T15:26:33.855Z,39.73
2018-11-10T15:29:00.851Z,37.07
2018-11-10T15:31:27.774Z,36.03
2018-11-10T15:33:54.673Z,36.37
2018-11-10T15:36:21.666Z,36.93
2018-11-10T15:38:48.621Z,38.23
2018-11-10T15:41:15.540Z,43.53
2018-11-10T15:43:42.473Z,39.63
2018-11-10T15:46:09.471Z,40.43
2018-11-10T15:48:36.494Z,42.33
2018-11-10T15:51:03.398Z,36.50
2018-11-10T15:53:30.448Z,38.33
2018-11-10T15:55:57.420Z,41.97
2018-11-10T15:58:24.409Z,39.30
2018-11-10T16:00:51.387Z,46.33
2018-11-10T16:03:18.388Z,39.87
2018-11-10T16:05:45.304Z,39.80
2018-11-10T16:08:12.245Z,38.87
2018-11-10T16:10:39.189Z,42.60
2018-11-10T16:13:06.348Z,45.60
2018-11-10T16:15:33.395Z,42.67
2018-11-10T16:18:00.933Z,42.90
2018-11-10T16:20:28.315Z,47.63
2018-11-10T16:22:55.287Z,44.40
2018-11-10T16:25:22.353Z,41.97
2018-11-10T16:27:49.375Z,38.17
2018-11-10T16:30:17.397Z,47.07
2018-11-10T16:32:44.792Z,44.57
2018-11-10T16:35:11.824Z,42.90
2018-11-10T16:37:39.014Z,43.17
2018-11-10T16:40:07.970Z,40.43
2018-11-10T16:42:34.939Z,51.87
2018-11-10T16:45:01.950Z,37.63
2018-11-10T16:47:28.926Z,39.63
2018-11-10T16:49:55.900Z,38.53
2018-11-10T16:52:23.110Z,37.03
2018-11-10T16:54:50.599Z,40.63
2018-11-10T16:57:19.053Z,70.03
2018-11-10T16:59:46.061Z,81.20
2018-11-10T17:02:13.146Z,36.60
2018-11-10T17:04:40.113Z,39.80
2018-11-10T17:07:07.078Z,39.23
2018-11-10T17:09:34.006Z,36.37
2018-11-10T17:12:00.987Z,42.47
2018-11-10T17:14:27.991Z,40.40
2018-11-10T17:16:54.873Z,46.55
2018-11-10T17:19:21.870Z,42.13
2018-11-10T17:21:49.118Z,48.03
2018-11-10T17:24:16.021Z,41.00
2018-11-10T17:26:42.997Z,48.03
2018-11-10T17:29:10.023Z,41.23
2018-11-10T17:31:38.053Z,42.33
2018-11-10T17:34:05.418Z,60.50
2018-11-10T17:36:33.328Z,48.80
2018-11-10T17:39:01.200Z,56.10
2018-11-10T17:41:28.229Z,48.53
2018-11-10T17:43:58.196Z,50.33
2018-11-10T17:46:26.548Z,49.23
2018-11-10T17:48:53.626Z,55.10
2018-11-10T17:51:20.618Z,61.57
2018-11-10T17:53:47.782Z,41.40
2018-11-10T17:56:15.766Z,74.77
2018-11-10T17:58:43.401Z,66.70
2018-11-10T18:01:15.072Z,51.27
2018-11-10T18:03:43.103Z,62.13
2018-11-10T18:06:17.617Z,79.80
2018-11-10T18:08:44.766Z,51.27
2018-11-10T18:11:16.143Z,46.53
2018-11-10T18:13:43.168Z,51.30
2018-11-10T18:16:10.180Z,50.20
2018-11-10T18:18:37.796Z,51.23
2018-11-10T18:21:06.107Z,51.87
2018-11-10T18:23:34.754Z,48.40
2018-11-10T18:26:01.802Z,45.60
2018-11-10T18:28:28.839Z,51.93
2018-11-10T18:30:55.982Z,48.87
2018-11-10T18:33:23.136Z,57.20
2018-11-10T18:35:50.142Z,49.83
2018-11-10T18:38:20.816Z,50.53
2018-11-10T18:40:48.412Z,51.23
2018-11-10T18:43:15.474Z,43.20
2018-11-10T18:45:42.920Z,51.57
2018-11-10T18:48:10.047Z,57.97
2018-11-10T18:50:37.085Z,58.67
2018-11-10T18:53:04.391Z,53.27
2018-11-10T18:55:31.415Z,42.03
2018-11-10T18:57:58.511Z,48.23
2018-11-10T19:00:25.500Z,46.73
2018-11-10T19:02:52.859Z,60.23
2018-11-10T19:05:19.995Z,49.90
2018-11-10T19:07:46.973Z,47.03
2018-11-10T19:10:15.518Z,50.63
2018-11-10T19:12:43.477Z,60.50
2018-11-10T19:15:15.968Z,50.13
2018-11-10T19:17:43.016Z,49.20
2018-11-10T19:20:10.776Z,44.67
2018-11-10T19:22:37.986Z,57.83
2018-11-10T19:25:07.171Z,56.97
2018-11-10T19:27:34.262Z,49.43
2018-11-10T19:30:01.202Z,47.60
2018-11-10T19:32:30.946Z,67.23
2018-11-10T19:35:01.563Z,51.93
2018-11-10T19:37:28.556Z,42.83
2018-11-10T19:39:55.521Z,47.63
2018-11-10T19:42:22.551Z,45.07
2018-11-10T19:44:49.537Z,44.87
2018-11-10T19:47:16.597Z,45.17
2018-11-10T19:49:43.625Z,46.90
2018-11-10T19:52:12.463Z,49.10
2018-11-10T19:54:39.073Z,47.67
2018-11-10T19:57:06.133Z,45.00
2018-11-10T19:59:33.243Z,41.63
2018-11-10T20:02:00.246Z,46.03
2018-11-10T20:04:28.315Z,51.07
2018-11-10T20:06:55.408Z,50.33
2018-11-10T20:09:22.976Z,49.47
2018-11-10T20:11:50.900Z,45.17
2018-11-10T20:14:18.006Z,52.33
2018-11-10T20:16:45.019Z,55.37
2018-11-10T20:19:13.151Z,49.73
2018-11-10T20:21:40.170Z,47.47
2018-11-10T20:24:07.831Z,46.93
2018-11-10T20:26:34.943Z,51.20
2018-11-10T20:29:04.171Z,47.63
2018-11-10T20:31:31.268Z,49.33
2018-11-10T20:33:58.356Z,45.87
2018-11-10T20:36:25.418Z,56.30
2018-11-10T20:38:52.567Z,55.00
2018-11-10T20:41:19.546Z,56.60
2018-11-10T20:43:46.597Z,49.97
2018-11-10T20:46:13.650Z,49.90
2018-11-10T20:48:40.681Z,50.17
2018-11-10T20:51:07.807Z,51.53
2018-11-10T20:53:34.734Z,52.33
2018-11-10T20:56:01.724Z,58.27
2018-11-10T20:58:28.830Z,61.37
2018-11-10T21:00:57.824Z,56.97
2018-11-10T21:03:24.836Z,53.47
2018-11-10T21:05:52.579Z,51.97
2018-11-10T21:08:20.308Z,62.13
2018-11-10T21:10:47.324Z,53.80
2018-11-10T21:13:14.302Z,51.37
2018-11-10T21:15:41.593Z,57.00
2018-11-10T21:18:08.834Z,51.17
2018-11-10T21:20:35.898Z,49.93
2018-11-10T21:23:02.985Z,55.63
2018-11-10T21:25:30.117Z,52.47
2018-11-10T21:27:57.195Z,53.50
2018-11-10T21:30:24.229Z,53.33
2018-11-10T21:32:52.246Z,54.17
2018-11-10T21:35:19.293Z,62.77
2018-11-10T21:37:46.235Z,63.70
2018-11-10T21:40:14.409Z,58.27
2018-11-10T21:42:41.961Z,52.17
2018-11-10T21:45:09.778Z,55.30
2018-11-10T21:47:36.824Z,50.53
2018-11-10T21:50:05.892Z,53.67
2018-11-10T21:52:32.926Z,59.90
2018-11-10T21:54:59.946Z,54.43
2018-11-10T21:57:26.918Z,55.13
2018-11-10T21:59:53.912Z,55.90
2018-11-10T22:02:20.923Z,49.30
2018-11-10T22:04:47.870Z,55.70
2018-11-10T22:07:14.872Z,55.37
2018-11-10T22:09:41.827Z,56.50
2018-11-10T22:12:09.465Z,51.67
2018-11-10T22:14:36.422Z,56.33
2018-11-10T22:17:03.515Z,51.87
2018-11-10T22:19:30.531Z,54.80
2018-11-10T22:21:57.566Z,54.80
2018-11-10T22:24:24.540Z,48.07
2018-11-10T22:26:51.564Z,47.90
2018-11-10T22:29:18.527Z,48.37
2018-11-10T22:31:45.477Z,53.77
2018-11-10T22:34:12.382Z,48.80
2018-11-10T22:36:39.340Z,48.90
2018-11-10T22:39:07.650Z,55.43
2018-11-10T22:41:34.594Z,50.10
2018-11-10T22:44:01.545Z,51.20
2018-11-10T22:46:28.487Z,50.63
2018-11-10T22:48:55.438Z,50.70
2018-11-10T22:51:22.416Z,52.23
2018-11-10T22:53:49.418Z,56.60
2018-11-10T22:56:16.426Z,51.87
2018-11-10T22:58:43.373Z,63.03
2018-11-10T23:01:10.596Z,59.80
2018-11-10T23:03:38.747Z,53.13
2018-11-10T23:06:06.143Z,50.47
2018-11-10T23:08:33.168Z,51.43
2018-11-10T23:11:00.212Z,55.20
2018-11-10T23:13:27.167Z,52.20
2018-11-10T23:15:54.163Z,50.73
2018-11-10T23:18:21.188Z,53.93
2018-11-10T23:20:48.120Z,48.43
2018-11-10T23:23:15.118Z,51.07
2018-11-10T23:25:42.095Z,55.67
2018-11-10T23:28:09.034Z,53.37
2018-11-10T23:30:35.978Z,47.00
2018-11-10T23:33:02.962Z,47.00
2018-11-10T23:35:30.043Z,48.30
2018-11-10T23:37:57.022Z,49.77
2018-11-10T23:40:24.027Z,52.67
2018-11-10T23:42:51.006Z,50.83
2018-11-10T23:45:17.972Z,48.47
2018-11-10T23:47:45.015Z,53.77
2018-11-10T23:50:13.271Z,52.17
2018-11-10T23:52:40.260Z,51.87
2018-11-10T23:55:08.208Z,51.40
2018-11-10T23:57:35.327Z,54.13
